Time;durP1;ratioP1;P1;durP2;ratioP2;P2;SDS_P1;SDS_P2;PMS_P1;PMS_P2;Temp;Humidity;BMP_temperature;BMP_pressure;BME280_temperature;BME280_humidity;BME280_pressure;Samples;Min_cycle;Max_cycle;Signal;HPM_P1;HPM_P2
2021/08/16 00:00:00;;;;;;;;;;;25.80;73.10;;;;;;5135338;27;20028;-61
2021/08/16 00:02:27;;;;;;;;;;;25.80;73.00;;;;;;5134979;27;20302;-60
2021/08/16 00:04:54;;;;;;;;;;;25.90;73.10;;;;;;5133973;27;19930;-61
2021/08/16 00:07:21;;;;;;;;;;;25.90;73.00;;;;;;5134145;27;20002;-60
2021/08/16 00:09:48;;;;;;;;;;;25.90;72.90;;;;;;5133854;27;20018;-61
2021/08/16 00:12:15;;;;;;;;;;;25.90;73.00;;;;;;5132984;27;19923;-61
2021/08/16 00:14:42;;;;;;;;;;;25.90;72.90;;;;;;5118488;27;19929;-60
2021/08/16 00:17:10;;;;;;;;;;;25.80;73.00;;;;;;5134308;27;19931;-60
2021/08/16 00:19:38;;;;;;;;;;;25.80;73.10;;;;;;5116134;27;19923;-60
2021/08/16 00:22:05;;;;;;;;;;;25.80;73.10;;;;;;5115817;27;20287;-61
2021/08/16 00:24:32;;;;;;;;;;;25.80;73.10;;;;;;5116654;27;19924;-60
2021/08/16 00:27:00;;;;;;;;;;;25.80;73.10;;;;;;5134066;27;19934;-60
2021/08/16 00:29:27;;;;;;;;;;;25.80;73.70;;;;;;5117137;27;19924;-61
2021/08/16 00:31:54;;;;;;;;;;;25.80;73.10;;;;;;5132461;27;20329;-61
2021/08/16 00:34:21;;;;;;;;;;;25.80;73.20;;;;;;5133713;27;19946;-60
2021/08/16 00:36:48;;;;;;;;;;;25.70;73.20;;;;;;5133829;27;19979;-61
2021/08/16 00:39:15;;;;;;;;;;;25.70;73.30;;;;;;5133938;27;19924;-61
2021/08/16 00:41:45;;;;;;;;;;;25.70;73.30;;;;;;5132128;27;20379;-61
2021/08/16 00:44:12;;;;;;;;;;;25.70;73.30;;;;;;5134435;27;19927;-61
2021/08/16 00:46:39;;;;;;;;;;;25.70;73.40;;;;;;5134776;27;19923;-60
2021/08/16 00:49:07;;;;;;;;;;;25.70;73.40;;;;;;5133178;27;19930;-61
2021/08/16 00:51:36;;;;;;;;;;;25.70;73.50;;;;;;5122966;27;19923;-60
2021/08/16 00:54:04;;;;;;;;;;;25.70;73.40;;;;;;5126049;27;19938;-60
2021/08/16 00:56:31;;;;;;;;;;;25.70;73.40;;;;;;5134417;27;20043;-60
2021/08/16 00:59:00;;;;;;;;;;;25.70;73.30;;;;;;5132711;27;19977;-61
2021/08/16 01:01:27;;;;;;;;;;;25.70;73.20;;;;;;5134443;27;19972;-60
2021/08/16 01:03:55;;;;;;;;;;;25.70;73.30;;;;;;5127782;27;20286;-61
2021/08/16 01:06:22;;;;;;;;;;;25.70;73.40;;;;;;5117696;27;19924;-61
2021/08/16 01:08:50;;;;;;;;;;;25.70;73.30;;;;;;5101425;27;19924;-61
2021/08/16 01:11:18;;;;;;;;;;;25.70;73.30;;;;;;5133240;27;20260;-61
2021/08/16 01:13:45;;;;;;;;;;;25.70;73.30;;;;;;5132862;27;19957;-61
2021/08/16 01:16:13;;;;;;;;;;;25.70;73.40;;;;;;5133957;27;19929;-61
2021/08/16 01:18:40;;;;;;;;;;;25.70;73.40;;;;;;5133193;27;19932;-60
2021/08/16 01:21:09;;;;;;;;;;;25.60;73.30;;;;;;5115969;27;19923;-60
2021/08/16 01:23:36;;;;;;;;;;;25.60;73.50;;;;;;5132891;27;19923;-61
2021/08/16 01:26:03;;;;;;;;;;;25.60;73.40;;;;;;5131869;27;19923;-61
2021/08/16 01:28:30;;;;;;;;;;;25.60;73.40;;;;;;5133460;27;19924;-60
2021/08/16 01:30:59;;;;;;;;;;;25.60;73.40;;;;;;5131707;27;20383;-61
2021/08/16 01:33:27;;;;;;;;;;;25.60;73.40;;;;;;5131739;27;19923;-60
2021/08/16 01:35:54;;;;;;;;;;;25.60;73.30;;;;;;5132402;27;20333;-61
2021/08/16 01:38:25;;;;;;;;;;;25.60;73.20;;;;;;5131380;27;19931;-60
2021/08/16 01:40:52;;;;;;;;;;;25.60;73.80;;;;;;5132441;27;19930;-60
2021/08/16 01:43:19;;;;;;;;;;;25.60;73.20;;;;;;5133551;27;19953;-60
2021/08/16 01:45:46;;;;;;;;;;;25.60;73.20;;;;;;5133901;27;19927;-60
2021/08/16 01:48:14;;;;;;;;;;;25.60;73.20;;;;;;5133802;28;19924;-60
2021/08/16 01:50:41;;;;;;;;;;;25.60;73.20;;;;;;5132156;27;20284;-60
2021/08/16 01:53:08;;;;;;;;;;;25.60;73.10;;;;;;5132615;28;19924;-60
2021/08/16 01:55:35;;;;;;;;;;;25.60;73.00;;;;;;5131050;28;19927;-60
2021/08/16 01:58:03;;;;;;;;;;;25.60;73.10;;;;;;5132916;28;19957;-60
2021/08/16 02:00:30;;;;;;;;;;;25.60;73.30;;;;;;5131958;28;19933;-60
2021/08/16 02:02:57;;;;;;;;;;;25.60;73.30;;;;;;5126833;28;20398;-60
2021/08/16 02:05:25;;;;;;;;;;;25.60;73.30;;;;;;5118478;28;20049;-60
2021/08/16 02:07:52;;;;;;;;;;;25.60;73.30;;;;;;5132145;28;19923;-61
2021/08/16 02:10:20;;;;;;;;;;;25.60;73.20;;;;;;5129255;28;20402;-60
2021/08/16 02:12:47;;;;;;;;;;;25.60;73.40;;;;;;5117210;28;19931;-61
2021/08/16 02:15:15;;;;;;;;;;;25.60;73.40;;;;;;5131345;28;20367;-60
2021/08/16 02:17:45;;;;;;;;;;;25.60;73.30;;;;;;5130712;28;19924;-61
2021/08/16 02:20:12;;;;;;;;;;;25.60;73.20;;;;;;5131426;28;19970;-61
2021/08/16 02:22:39;;;;;;;;;;;25.60;73.20;;;;;;5131802;28;20272;-60
2021/08/16 02:25:06;;;;;;;;;;;25.60;73.20;;;;;;5132523;28;19924;-60
2021/08/16 02:27:33;;;;;;;;;;;25.60;73.20;;;;;;5132771;28;19950;-60
2021/08/16 02:30:00;;;;;;;;;;;25.60;73.10;;;;;;5132231;28;19984;-58
2021/08/16 02:32:27;;;;;;;;;;;25.60;73.10;;;;;;5133158;28;19923;-58
2021/08/16 02:34:54;;;;;;;;;;;25.60;73.10;;;;;;5130834;28;19923;-59
2021/08/16 02:37:21;;;;;;;;;;;25.60;73.00;;;;;;5133057;28;19951;-59
2021/08/16 02:39:48;;;;;;;;;;;25.60;72.90;;;;;;5131004;28;19927;-58
2021/08/16 02:42:15;;;;;;;;;;;25.60;73.00;;;;;;5132006;28;20271;-59
2021/08/16 02:44:42;;;;;;;;;;;25.60;73.00;;;;;;5114878;28;19972;-59
2021/08/16 02:47:09;;;;;;;;;;;25.60;73.10;;;;;;5132967;28;19923;-59
2021/08/16 02:49:36;;;;;;;;;;;25.60;73.20;;;;;;5131227;28;19924;-58
2021/08/16 02:52:03;;;;;;;;;;;25.60;73.10;;;;;;5124627;28;19924;-58
2021/08/16 02:54:30;;;;;;;;;;;25.60;73.10;;;;;;5123106;28;20036;-59
2021/08/16 02:56:57;;;;;;;;;;;25.50;73.00;;;;;;5124791;28;19967;-58
2021/08/16 02:59:24;;;;;;;;;;;25.60;72.90;;;;;;5118779;28;19974;-58
2021/08/16 03:01:51;;;;;;;;;;;25.50;73.00;;;;;;5134723;27;20336;-58
2021/08/16 03:04:18;;;;;;;;;;;25.60;72.90;;;;;;5131638;27;19932;-58
2021/08/16 03:06:45;;;;;;;;;;;25.60;73.00;;;;;;5122290;27;20005;-59
2021/08/16 03:09:12;;;;;;;;;;;25.60;72.90;;;;;;5136203;27;19924;-59
2021/08/16 03:11:39;;;;;;;;;;;25.60;73.00;;;;;;5134192;27;20375;-59
2021/08/16 03:14:06;;;;;;;;;;;25.50;73.00;;;;;;5135078;27;19923;-59
2021/08/16 03:16:33;;;;;;;;;;;25.50;73.00;;;;;;5134951;27;19927;-58
2021/08/16 03:19:00;;;;;;;;;;;25.50;72.90;;;;;;5118093;27;20382;-59
2021/08/16 03:21:27;;;;;;;;;;;25.50;72.90;;;;;;5136183;27;20378;-60
2021/08/16 03:23:54;;;;;;;;;;;25.50;73.00;;;;;;5135164;27;19924;-58
2021/08/16 03:26:21;;;;;;;;;;;25.50;72.90;;;;;;5135954;27;20379;-59
2021/08/16 03:28:48;;;;;;;;;;;25.50;73.00;;;;;;5134665;27;19924;-59
2021/08/16 03:31:15;;;;;;;;;;;25.50;73.00;;;;;;5135940;27;20458;-59
2021/08/16 03:33:42;;;;;;;;;;;25.50;72.90;;;;;;5134486;27;19973;-59
2021/08/16 03:36:09;;;;;;;;;;;25.50;72.90;;;;;;5135811;27;19930;-59
2021/08/16 03:38:36;;;;;;;;;;;25.50;72.80;;;;;;5136096;27;19924;-58
2021/08/16 03:41:03;;;;;;;;;;;25.50;72.80;;;;;;5134226;27;19923;-59
2021/08/16 03:43:30;;;;;;;;;;;25.50;72.80;;;;;;5135674;27;19924;-59
2021/08/16 03:45:57;;;;;;;;;;;25.50;72.60;;;;;;5135787;27;19958;-58
2021/08/16 03:48:24;;;;;;;;;;;25.50;72.70;;;;;;5127049;27;19928;-58
2021/08/16 03:50:51;;;;;;;;;;;25.50;72.90;;;;;;5118483;27;20436;-59
2021/08/16 03:53:18;;;;;;;;;;;25.50;72.80;;;;;;5118689;27;19959;-58
2021/08/16 03:55:45;;;;;;;;;;;25.50;72.90;;;;;;5127924;27;19924;-59
2021/08/16 03:58:12;;;;;;;;;;;25.50;72.80;;;;;;5120552;27;20379;-58
2021/08/16 04:00:40;;;;;;;;;;;25.50;72.70;;;;;;5113570;27;19924;-58
2021/08/16 04:03:07;;;;;;;;;;;25.40;72.70;;;;;;5118790;27;20006;-58
2021/08/16 04:05:35;;;;;;;;;;;25.40;72.60;;;;;;5132990;27;19923;-60
2021/08/16 04:08:01;;;;;;;;;;;25.50;72.80;;;;;;5134526;27;19924;-60
2021/08/16 04:10:28;;;;;;;;;;;25.50;72.80;;;;;;5134474;27;19923;-60
2021/08/16 04:12:55;;;;;;;;;;;25.50;72.60;;;;;;5133968;27;19923;-61
2021/08/16 04:15:22;;;;;;;;;;;25.50;72.70;;;;;;5134500;27;19927;-60
2021/08/16 04:17:50;;;;;;;;;;;25.50;72.70;;;;;;5135172;27;20435;-60
2021/08/16 04:20:18;;;;;;;;;;;25.50;72.60;;;;;;5132412;27;19930;-60
2021/08/16 04:22:45;;;;;;;;;;;25.50;72.60;;;;;;5135198;27;19984;-60
2021/08/16 04:25:13;;;;;;;;;;;25.50;72.50;;;;;;5132640;27;19985;-59
2021/08/16 04:27:41;;;;;;;;;;;25.50;72.60;;;;;;5135114;27;19969;-60
2021/08/16 04:30:09;;;;;;;;;;;25.50;72.50;;;;;;5132416;27;19956;-60
2021/08/16 04:32:36;;;;;;;;;;;25.50;72.50;;;;;;5133579;27;20279;-59
2021/08/16 04:35:04;;;;;;;;;;;25.60;72.50;;;;;;5134668;27;19967;-59
2021/08/16 04:37:38;;;;;;;;;;;25.60;72.40;;;;;;5124477;27;19928;-60
2021/08/16 04:40:06;;;;;;;;;;;25.60;72.30;;;;;;5126813;27;19923;-60
2021/08/16 04:42:33;;;;;;;;;;;25.60;72.10;;;;;;5134571;27;19959;-61
2021/08/16 04:45:00;;;;;;;;;;;25.60;72.00;;;;;;5116563;27;20018;-60
2021/08/16 04:47:27;;;;;;;;;;;25.70;72.00;;;;;;5117467;27;19924;-60
2021/08/16 04:49:56;;;;;;;;;;;25.70;72.00;;;;;;5122668;27;20390;-60
2021/08/16 04:52:24;;;;;;;;;;;25.70;71.80;;;;;;5132162;27;19968;-59
2021/08/16 04:54:51;;;;;;;;;;;25.70;71.80;;;;;;5133152;27;20340;-60
2021/08/16 04:57:29;;;;;;;;;;;25.70;71.70;;;;;;5132730;27;20444;-59
2021/08/16 04:59:56;;;;;;;;;;;25.70;71.70;;;;;;5133329;27;19923;-60
2021/08/16 05:02:23;;;;;;;;;;;25.70;71.70;;;;;;5132876;27;20448;-60
2021/08/16 05:04:55;;;;;;;;;;;25.70;71.50;;;;;;5133540;27;20383;-61
2021/08/16 05:07:22;;;;;;;;;;;25.70;71.50;;;;;;5133284;27;19924;-60
2021/08/16 05:09:52;;;;;;;;;;;25.80;71.50;;;;;;5134203;27;19968;-60
2021/08/16 05:12:19;;;;;;;;;;;25.80;71.50;;;;;;5131742;27;20444;-60
2021/08/16 05:14:46;;;;;;;;;;;25.80;71.40;;;;;;5115181;27;19924;-59
2021/08/16 05:17:14;;;;;;;;;;;25.80;71.20;;;;;;5116342;27;19923;-60
2021/08/16 05:19:41;;;;;;;;;;;25.80;71.20;;;;;;5133359;27;19928;-59
2021/08/16 05:22:08;;;;;;;;;;;25.80;71.20;;;;;;5132801;27;19972;-60
2021/08/16 05:24:36;;;;;;;;;;;25.80;71.10;;;;;;5132217;27;19928;-60
2021/08/16 05:27:03;;;;;;;;;;;25.90;71.10;;;;;;5133632;27;20375;-59
2021/08/16 05:29:31;;;;;;;;;;;25.90;71.10;;;;;;5132305;27;20438;-60
2021/08/16 05:31:58;;;;;;;;;;;25.90;71.00;;;;;;5132496;27;19923;-60
2021/08/16 05:34:25;;;;;;;;;;;25.90;70.90;;;;;;5119930;27;19923;-60
2021/08/16 05:36:52;;;;;;;;;;;26.00;70.90;;;;;;5116935;27;19924;-60
2021/08/16 05:39:19;;;;;;;;;;;25.90;70.70;;;;;;5105711;28;20316;-60
2021/08/16 05:41:46;;;;;;;;;;;26.00;70.60;;;;;;5104916;28;20014;-60
2021/08/16 05:44:13;;;;;;;;;;;26.00;70.70;;;;;;5126501;27;19972;-60
2021/08/16 05:46:39;;;;;;;;;;;26.00;70.80;;;;;;5133793;27;19958;-60
2021/08/16 05:49:06;;;;;;;;;;;26.00;70.80;;;;;;5131368;28;19930;-59
2021/08/16 05:51:33;;;;;;;;;;;26.00;70.80;;;;;;5132089;28;19923;-60
2021/08/16 05:54:00;;;;;;;;;;;26.00;70.70;;;;;;5131031;28;20325;-59
2021/08/16 05:56:27;;;;;;;;;;;26.10;70.70;;;;;;5119911;28;19951;-59
2021/08/16 05:58:55;;;;;;;;;;;26.10;70.60;;;;;;5131708;28;19930;-59
2021/08/16 06:01:22;;;;;;;;;;;26.10;70.40;;;;;;5133238;28;20443;-60
2021/08/16 06:03:49;;;;;;;;;;;26.10;70.50;;;;;;5132391;28;19930;-59
2021/08/16 06:06:16;;;;;;;;;;;26.20;70.60;;;;;;5132010;28;20337;-61
2021/08/16 06:08:43;;;;;;;;;;;26.20;70.60;;;;;;5133408;28;19948;-59
2021/08/16 06:11:10;;;;;;;;;;;26.20;70.30;;;;;;5115681;28;19980;-59
2021/08/16 06:13:37;;;;;;;;;;;26.20;70.20;;;;;;5131939;28;20392;-59
2021/08/16 06:16:04;;;;;;;;;;;26.20;70.20;;;;;;5133834;28;19924;-59
2021/08/16 06:18:30;;;;;;;;;;;26.20;70.00;;;;;;5133327;28;20379;-60
2021/08/16 06:20:57;;;;;;;;;;;26.20;69.90;;;;;;5131870;28;19974;-59
2021/08/16 06:23:24;;;;;;;;;;;26.20;69.90;;;;;;5133422;28;19992;-60
2021/08/16 06:25:51;;;;;;;;;;;26.30;69.90;;;;;;5116980;28;19928;-60
2021/08/16 06:28:18;;;;;;;;;;;26.30;69.80;;;;;;5116206;28;20358;-59
2021/08/16 06:30:45;;;;;;;;;;;26.30;69.80;;;;;;5115433;28;20002;-59
2021/08/16 06:33:12;;;;;;;;;;;26.30;69.70;;;;;;5128161;28;20343;-59
2021/08/16 06:35:39;;;;;;;;;;;26.30;69.60;;;;;;5131472;27;20395;-59
2021/08/16 06:38:19;;;;;;;;;;;26.30;69.50;;;;;;5136988;27;19924;-61
2021/08/16 06:40:46;;;;;;;;;;;26.40;69.60;;;;;;5135740;27;19923;-60
2021/08/16 06:43:13;;;;;;;;;;;26.40;69.50;;;;;;5134402;27;20375;-59
2021/08/16 06:45:40;;;;;;;;;;;26.40;69.40;;;;;;5135764;27;19947;-60
2021/08/16 06:48:08;;;;;;;;;;;26.50;69.40;;;;;;5136974;27;19931;-60
2021/08/16 06:50:35;;;;;;;;;;;26.40;69.30;;;;;;5136527;27;19984;-60
2021/08/16 06:53:02;;;;;;;;;;;26.50;69.30;;;;;;5135416;27;20437;-59
2021/08/16 06:55:29;;;;;;;;;;;26.50;69.30;;;;;;5135197;27;20353;-60
2021/08/16 06:57:56;;;;;;;;;;;26.50;69.30;;;;;;5134909;27;19980;-60
2021/08/16 07:00:23;;;;;;;;;;;26.50;69.30;;;;;;5136941;27;19988;-60
2021/08/16 07:02:50;;;;;;;;;;;26.50;69.30;;;;;;5136712;27;19931;-59
2021/08/16 07:05:17;;;;;;;;;;;26.50;69.20;;;;;;5135410;27;19923;-60
2021/08/16 07:07:46;;;;;;;;;;;26.50;69.10;;;;;;5135128;27;20410;-59
2021/08/16 07:10:14;;;;;;;;;;;26.60;69.20;;;;;;5117084;27;19957;-59
2021/08/16 07:12:41;;;;;;;;;;;26.50;69.20;;;;;;5135690;27;20380;-58
2021/08/16 07:15:08;;;;;;;;;;;26.50;69.40;;;;;;5117174;27;19927;-59
2021/08/16 07:17:35;;;;;;;;;;;26.50;69.50;;;;;;5118230;27;20341;-59
2021/08/16 07:20:03;;;;;;;;;;;26.50;69.70;;;;;;5101017;28;19959;-59
2021/08/16 07:22:30;;;;;;;;;;;26.50;69.90;;;;;;5135482;27;19970;-60
2021/08/16 07:24:57;;;;;;;;;;;26.50;70.00;;;;;;5120669;27;20387;-60
2021/08/16 07:27:24;;;;;;;;;;;26.50;69.90;;;;;;5133392;27;19965;-59
2021/08/16 07:29:51;;;;;;;;;;;26.50;70.00;;;;;;5134565;27;19923;-59
2021/08/16 07:32:17;;;;;;;;;;;26.60;70.00;;;;;;5133627;27;20290;-60
2021/08/16 07:34:44;;;;;;;;;;;26.60;69.80;;;;;;5134594;27;19923;-59
2021/08/16 07:37:12;;;;;;;;;;;26.60;69.80;;;;;;5134927;27;19972;-60
2021/08/16 07:39:39;;;;;;;;;;;26.60;69.60;;;;;;5133351;27;20279;-60
2021/08/16 07:42:06;;;;;;;;;;;26.70;69.60;;;;;;5135748;27;19923;-59
2021/08/16 07:44:33;;;;;;;;;;;26.70;69.30;;;;;;5134669;27;20038;-59
2021/08/16 07:47:00;;;;;;;;;;;26.70;69.20;;;;;;5132986;27;19927;-61
2021/08/16 07:49:30;;;;;;;;;;;26.70;69.00;;;;;;5133948;27;19972;-59
2021/08/16 07:51:58;;;;;;;;;;;26.70;68.90;;;;;;5134251;27;20019;-59
2021/08/16 07:54:25;;;;;;;;;;;26.80;68.80;;;;;;5135374;27;19924;-59
2021/08/16 07:56:52;;;;;;;;;;;26.80;69.00;;;;;;5132883;27;19931;-60
2021/08/16 07:59:19;;;;;;;;;;;26.70;68.90;;;;;;5135702;27;19968;-59
2021/08/16 08:01:46;;;;;;;;;;;26.80;68.90;;;;;;5134529;27;20016;-60
2021/08/16 08:04:14;;;;;;;;;;;26.80;68.80;;;;;;5132823;27;20427;-60
2021/08/16 08:06:41;;;;;;;;;;;26.80;68.80;;;;;;5135724;27;20052;-60
2021/08/16 08:09:08;;;;;;;;;;;26.80;68.80;;;;;;5116925;27;19923;-60
2021/08/16 08:11:35;;;;;;;;;;;26.80;68.70;;;;;;5134490;27;20012;-60
2021/08/16 08:14:02;;;;;;;;;;;26.90;68.60;;;;;;5117078;27;19934;-60
2021/08/16 08:16:29;;;;;;;;;;;26.90;68.60;;;;;;5134008;27;19977;-60
2021/08/16 08:18:56;;;;;;;;;;;26.90;68.50;;;;;;5135332;27;19928;-60
2021/08/16 08:21:23;;;;;;;;;;;26.90;68.80;;;;;;5132838;27;20374;-60
2021/08/16 08:23:51;;;;;;;;;;;26.90;68.90;;;;;;5133699;27;19923;-60
2021/08/16 08:26:18;;;;;;;;;;;26.90;68.80;;;;;;5121952;27;19959;-59
2021/08/16 08:28:45;;;;;;;;;;;26.90;68.70;;;;;;5127333;27;19923;-60
2021/08/16 08:31:13;;;;;;;;;;;26.90;68.50;;;;;;5134597;27;19976;-60
2021/08/16 08:33:40;;;;;;;;;;;26.90;68.50;;;;;;5133638;27;19946;-60
2021/08/16 08:36:07;;;;;;;;;;;26.90;68.40;;;;;;5134749;27;19963;-60
2021/08/16 08:38:33;;;;;;;;;;;26.90;68.40;;;;;;5133454;27;20339;-59
2021/08/16 08:41:03;;;;;;;;;;;26.90;68.60;;;;;;5132373;27;20378;-59
2021/08/16 08:43:30;;;;;;;;;;;26.90;68.70;;;;;;5133633;27;19927;-59
2021/08/16 08:45:57;;;;;;;;;;;26.90;68.70;;;;;;5131782;27;19972;-60
2021/08/16 08:48:28;;;;;;;;;;;26.90;68.70;;;;;;5134328;27;19972;-60
2021/08/16 08:50:55;;;;;;;;;;;26.80;68.70;;;;;;5134111;27;20014;-59
2021/08/16 08:53:22;;;;;;;;;;;26.80;68.90;;;;;;5133205;27;20344;-59
2021/08/16 08:55:49;;;;;;;;;;;26.80;69.00;;;;;;5133833;27;19966;-60
2021/08/16 08:58:18;;;;;;;;;;;26.80;69.10;;;;;;5132659;27;19966;-60
2021/08/16 09:00:45;;;;;;;;;;;26.80;69.10;;;;;;5133883;27;19981;-59
2021/08/16 09:03:12;;;;;;;;;;;26.80;69.00;;;;;;5116271;27;19924;-60
2021/08/16 09:05:53;;;;;;;;;;;26.80;69.00;;;;;;5113793;27;20322;-59
2021/08/16 09:08:27;;;;;;;;;;;26.80;69.10;;;;;;5116264;27;19967;-59
2021/08/16 09:11:13;;;;;;;;;;;26.80;69.10;;;;;;5115506;27;19923;-59
2021/08/16 09:13:52;;;;;;;;;;;26.80;69.10;;;;;;5116359;27;19924;-59
2021/08/16 09:16:19;;;;;;;;;;;26.90;69.10;;;;;;5134100;27;20328;-60
2021/08/16 09:18:46;;;;;;;;;;;26.90;68.90;;;;;;5132434;27;19989;-60
2021/08/16 09:21:22;;;;;;;;;;;27.00;68.70;;;;;;5131856;27;19929;-59
2021/08/16 09:23:55;;;;;;;;;;;27.00;68.50;;;;;;5118144;27;19928;-59
2021/08/16 09:26:26;;;;;;;;;;;27.10;68.40;;;;;;5134098;27;19967;-61
2021/08/16 09:29:21;;;;;;;;;;;27.10;68.30;;;;;;5133804;27;19923;-60
2021/08/16 09:31:49;;;;;;;;;;;27.10;68.40;;;;;;5132564;27;20375;-60
2021/08/16 09:34:26;;;;;;;;;;;27.10;68.20;;;;;;5131774;27;20321;-60
2021/08/16 09:36:53;;;;;;;;;;;27.20;68.30;;;;;;5131855;27;19974;-59
2021/08/16 09:39:20;;;;;;;;;;;27.20;68.20;;;;;;5131402;27;19963;-60
2021/08/16 09:41:48;;;;;;;;;;;27.20;68.20;;;;;;5133442;27;20431;-59
2021/08/16 09:44:15;;;;;;;;;;;27.30;68.30;;;;;;5133779;27;19970;-59
2021/08/16 09:46:44;;;;;;;;;;;27.30;68.00;;;;;;5115910;27;19954;-59
2021/08/16 09:49:12;;;;;;;;;;;27.30;68.30;;;;;;5132500;28;19934;-59
2021/08/16 09:51:39;;;;;;;;;;;27.30;68.70;;;;;;5133460;28;19924;-59
2021/08/16 09:54:07;;;;;;;;;;;27.30;68.00;;;;;;5119531;28;19930;-59
2021/08/16 09:56:34;;;;;;;;;;;27.30;68.10;;;;;;5132147;28;19927;-59
2021/08/16 09:59:02;;;;;;;;;;;27.30;68.10;;;;;;5117394;28;20403;-59
2021/08/16 10:01:29;;;;;;;;;;;27.30;68.10;;;;;;5115233;28;19924;-60
2021/08/16 10:03:57;;;;;;;;;;;27.30;68.30;;;;;;5128590;28;20455;-60
2021/08/16 10:06:25;;;;;;;;;;;27.30;68.90;;;;;;5120033;28;20030;-60
2021/08/16 10:08:53;;;;;;;;;;;27.30;68.20;;;;;;5115166;28;19931;-59
2021/08/16 10:11:21;;;;;;;;;;;27.40;68.10;;;;;;5129839;27;19945;-59
2021/08/16 10:13:56;;;;;;;;;;;27.40;68.00;;;;;;5135078;27;19923;-60
2021/08/16 10:16:25;;;;;;;;;;;27.40;68.10;;;;;;5137782;27;19946;-59
2021/08/16 10:19:02;;;;;;;;;;;27.40;67.90;;;;;;5136274;27;19934;-60
2021/08/16 10:21:29;;;;;;;;;;;27.50;68.20;;;;;;5135879;27;19924;-59
2021/08/16 10:24:00;;;;;;;;;;;27.60;67.80;;;;;;5135910;27;19933;-60
2021/08/16 10:26:31;;;;;;;;;;;27.60;67.70;;;;;;5134772;27;19924;-60
2021/08/16 10:29:02;;;;;;;;;;;27.60;67.70;;;;;;5135791;27;20302;-60
2021/08/16 10:31:33;;;;;;;;;;;27.60;67.80;;;;;;5134660;27;20367;-60
2021/08/16 10:34:01;;;;;;;;;;;27.60;67.80;;;;;;5135999;27;19923;-60
2021/08/16 10:36:28;;;;;;;;;;;27.70;67.50;;;;;;5137237;27;19967;-59
2021/08/16 10:38:56;;;;;;;;;;;27.70;67.30;;;;;;5134808;27;19923;-59
2021/08/16 10:41:24;;;;;;;;;;;27.70;67.50;;;;;;5135544;27;19970;-60
2021/08/16 10:43:51;;;;;;;;;;;27.70;67.10;;;;;;5134921;27;20328;-60
2021/08/16 10:46:21;;;;;;;;;;;27.70;67.40;;;;;;5137045;27;19967;-60
2021/08/16 10:49:04;;;;;;;;;;;27.70;67.50;;;;;;5135601;27;20336;-59
2021/08/16 10:51:42;;;;;;;;;;;27.70;67.20;;;;;;5135731;27;19923;-59
2021/08/16 10:54:20;;;;;;;;;;;27.70;67.50;;;;;;5135648;27;20328;-60
2021/08/16 10:56:48;;;;;;;;;;;27.70;67.40;;;;;;5134990;27;20337;-59
2021/08/16 10:59:15;;;;;;;;;;;27.70;67.10;;;;;;5136623;27;19923;-60
2021/08/16 11:01:43;;;;;;;;;;;27.70;66.90;;;;;;5136497;27;19927;-60
2021/08/16 11:04:34;;;;;;;;;;;27.80;66.80;;;;;;5134326;27;19931;-59
2021/08/16 11:07:03;;;;;;;;;;;27.80;67.50;;;;;;5135280;27;19992;-59
2021/08/16 11:09:33;;;;;;;;;;;27.80;66.40;;;;;;5117435;27;19924;-59
2021/08/16 11:12:09;;;;;;;;;;;27.90;66.50;;;;;;5135561;27;20378;-60
2021/08/16 11:14:40;;;;;;;;;;;27.90;66.50;;;;;;5134048;27;19923;-60
2021/08/16 11:17:08;;;;;;;;;;;27.90;66.20;;;;;;5135400;27;19923;-61
2021/08/16 11:19:40;;;;;;;;;;;28.00;66.10;;;;;;5133740;27;20010;-59
2021/08/16 11:22:07;;;;;;;;;;;28.00;65.80;;;;;;5133338;27;19974;-59
2021/08/16 11:24:35;;;;;;;;;;;28.00;65.70;;;;;;5135305;27;20338;-59
2021/08/16 11:27:03;;;;;;;;;;;28.00;65.60;;;;;;5136127;27;20324;-60
2021/08/16 11:29:30;;;;;;;;;;;28.00;65.30;;;;;;5136483;27;19946;-59
2021/08/16 11:31:59;;;;;;;;;;;28.10;65.60;;;;;;5135993;27;19954;-60
2021/08/16 11:34:27;;;;;;;;;;;28.00;65.30;;;;;;5134980;27;19962;-60
2021/08/16 11:36:56;;;;;;;;;;;28.10;65.60;;;;;;5117004;27;19980;-60
2021/08/16 11:39:33;;;;;;;;;;;28.10;65.50;;;;;;5134759;27;20530;-59
2021/08/16 11:42:01;;;;;;;;;;;28.10;65.40;;;;;;5135032;27;19945;-60
2021/08/16 11:44:28;;;;;;;;;;;28.10;65.30;;;;;;5117700;27;19967;-60
2021/08/16 11:46:59;;;;;;;;;;;28.20;65.10;;;;;;5134347;27;19923;-60
2021/08/16 11:49:30;;;;;;;;;;;28.20;64.90;;;;;;5118038;27;20389;-60
2021/08/16 11:51:57;;;;;;;;;;;28.20;64.80;;;;;;5134658;27;19923;-59
2021/08/16 11:54:28;;;;;;;;;;;28.20;64.60;;;;;;5135388;27;19969;-60
2021/08/16 11:56:56;;;;;;;;;;;28.20;64.90;;;;;;5135478;27;19973;-60
2021/08/16 11:59:24;;;;;;;;;;;28.20;64.80;;;;;;5133292;27;20075;-60
2021/08/16 12:01:57;;;;;;;;;;;28.20;64.90;;;;;;5134666;27;19924;-60
2021/08/16 12:04:25;;;;;;;;;;;28.20;64.90;;;;;;5133974;27;19924;-59
2021/08/16 12:06:52;;;;;;;;;;;28.10;64.60;;;;;;5134264;27;19982;-60
2021/08/16 12:09:19;;;;;;;;;;;28.20;65.00;;;;;;5132800;27;20439;-61
2021/08/16 12:12:03;;;;;;;;;;;28.20;64.80;;;;;;5133995;27;19931;-60
2021/08/16 12:14:31;;;;;;;;;;;28.20;64.70;;;;;;5133656;27;19924;-59
2021/08/16 12:16:58;;;;;;;;;;;28.30;64.50;;;;;;5135110;27;19977;-60
2021/08/16 12:19:25;;;;;;;;;;;28.30;64.50;;;;;;5134005;27;19963;-60
2021/08/16 12:22:03;;;;;;;;;;;28.30;64.30;;;;;;5125549;27;20354;-60
2021/08/16 12:24:30;;;;;;;;;;;28.30;64.40;;;;;;5127385;27;19959;-60
2021/08/16 12:27:05;;;;;;;;;;;28.30;64.10;;;;;;5133430;27;19929;-59
2021/08/16 12:29:39;;;;;;;;;;;28.40;64.30;;;;;;5133727;27;20041;-59
2021/08/16 12:32:32;;;;;;;;;;;28.40;64.10;;;;;;5135004;27;19969;-60
2021/08/16 12:35:01;;;;;;;;;;;28.50;64.10;;;;;;5119394;27;19924;-59
2021/08/16 12:37:30;;;;;;;;;;;28.40;63.60;;;;;;5127392;27;19955;-60
2021/08/16 12:40:06;;;;;;;;;;;28.50;63.70;;;;;;5133300;27;20010;-59
2021/08/16 12:42:33;;;;;;;;;;;28.50;63.90;;;;;;5125242;27;19928;-60
2021/08/16 12:45:00;;;;;;;;;;;28.40;63.40;;;;;;5107199;27;19923;-60
2021/08/16 12:47:30;;;;;;;;;;;28.50;63.80;;;;;;5132001;27;19976;-60
2021/08/16 12:49:58;;;;;;;;;;;28.50;63.70;;;;;;5131693;27;19930;-59
2021/08/16 12:52:26;;;;;;;;;;;28.40;63.50;;;;;;5131701;27;20294;-59
2021/08/16 12:55:05;;;;;;;;;;;28.40;64.50;;;;;;4999014;28;20285;-60
2021/08/16 12:57:32;;;;;;;;;;;28.40;63.60;;;;;;4987107;28;20012;-60
2021/08/16 12:59:58;;;;;;;;;;;28.40;63.70;;;;;;4987266;28;19976;-61
2021/08/16 13:02:27;;;;;;;;;;;28.40;63.70;;;;;;4985510;28;19926;-60
2021/08/16 13:04:55;;;;;;;;;;;28.40;63.90;;;;;;4987137;28;19957;-60
2021/08/16 13:07:22;;;;;;;;;;;28.30;63.90;;;;;;4987421;28;19930;-60
2021/08/16 13:09:49;;;;;;;;;;;28.30;63.70;;;;;;4987338;28;19979;-60
2021/08/16 13:12:23;;;;;;;;;;;28.30;64.00;;;;;;4987390;28;19979;-60
2021/08/16 13:14:52;;;;;;;;;;;28.30;64.00;;;;;;4986132;28;19996;-60
2021/08/16 13:17:19;;;;;;;;;;;28.30;64.00;;;;;;4987093;28;19933;-60
2021/08/16 13:19:46;;;;;;;;;;;28.20;64.10;;;;;;4985959;28;20382;-57
2021/08/16 13:22:13;;;;;;;;;;;28.20;64.20;;;;;;4986504;28;19976;-60
2021/08/16 13:24:41;;;;;;;;;;;28.20;64.30;;;;;;4986223;28;19933;-60
2021/08/16 13:27:09;;;;;;;;;;;28.30;64.20;;;;;;4987236;28;20131;-60
2021/08/16 13:29:36;;;;;;;;;;;28.30;64.10;;;;;;4987058;28;20013;-60
2021/08/16 13:32:03;;;;;;;;;;;28.30;64.00;;;;;;4985544;28;19926;-60
2021/08/16 13:34:30;;;;;;;;;;;28.30;64.00;;;;;;4986957;28;19926;-58
2021/08/16 13:36:59;;;;;;;;;;;28.30;64.00;;;;;;4986712;28;19926;-59
2021/08/16 13:39:27;;;;;;;;;;;28.30;63.90;;;;;;4985485;28;19977;-58
2021/08/16 13:41:55;;;;;;;;;;;28.30;64.10;;;;;;4985507;28;20271;-58
2021/08/16 13:44:22;;;;;;;;;;;28.20;63.50;;;;;;4986843;28;19975;-59
2021/08/16 13:46:49;;;;;;;;;;;28.10;63.70;;;;;;4985713;28;19930;-59
2021/08/16 13:49:16;;;;;;;;;;;28.20;64.10;;;;;;5015000;28;19926;-59
2021/08/16 13:51:43;;;;;;;;;;;28.10;64.10;;;;;;4986302;28;19938;-59
2021/08/16 13:54:11;;;;;;;;;;;28.10;64.30;;;;;;4998781;28;19973;-59
2021/08/16 13:56:38;;;;;;;;;;;28.10;64.30;;;;;;5006182;28;19926;-59
2021/08/16 13:59:05;;;;;;;;;;;28.10;64.50;;;;;;5004835;28;19934;-60
2021/08/16 14:01:33;;;;;;;;;;;28.10;64.60;;;;;;5004647;28;19941;-59
2021/08/16 14:04:01;;;;;;;;;;;28.10;64.70;;;;;;5005723;28;19926;-59
2021/08/16 14:06:28;;;;;;;;;;;28.00;64.60;;;;;;4991887;28;19925;-59
2021/08/16 14:08:55;;;;;;;;;;;28.00;64.70;;;;;;4992792;28;19925;-59
2021/08/16 14:11:22;;;;;;;;;;;28.00;64.80;;;;;;4992596;28;19930;-59
2021/08/16 14:13:49;;;;;;;;;;;27.90;65.00;;;;;;4991828;28;20327;-59
2021/08/16 14:16:20;;;;;;;;;;;27.90;65.00;;;;;;4992631;28;19932;-60
2021/08/16 14:18:47;;;;;;;;;;;27.90;64.90;;;;;;4993040;28;19929;-59
2021/08/16 14:21:14;;;;;;;;;;;27.90;65.10;;;;;;4991790;28;19925;-59